OKBK Airport Information

Runway Information
Runway 15L Length 11483 ft width 148 ft
Elevation 161 ft Threshold 0 ft Heading 155
Runway 33R Length 11483 ft Width 148 ft
Elevation 206 ft Threshold 0 ft Heading 335
Runway 15R Length 11155 ft width 148 ft
Elevation 134 ft Threshold 0 ft Heading 155
Runway 33L Length 11155 ft Width 148 ft
Elevation 170 ft Threshold 0 ft Heading 335
Airport Frequencies
Type APP Name APP Frequency 121.3 MHZ
Type ATIS Name ATIS Frequency 126.225 MHZ
Type GND Name GND Frequency 121.7 MHZ
Type TWR Name TWR Frequency 118.3 MHZ
Airport Navaids
Type VOR-DME Name Kuwait Frequency 115500 KHZ
Airport Weather Information & NOTAM
ADDS - METARS form results

(0133 UTC 19 August 2018)
 
METAR text: OKBK 190100Z 35007KT CAVOK 35/11 Q0998 NOSIG
Conditions at: OKBK (KUWAIT INTL (MIL, KW) observed 0100 UTC 19 August 2018
Temperature: 35.0°C (95°F)
Dewpoint: 11.0°C (52°F) [RH = 23%]
Pressure (altimeter): 29.47 inches Hg (998.0 mb)
Winds: from the N (350 degrees) at 8 MPH (7 knots; 3.6 m/s)
Visibility: 6 or more miles (10+ km)
Ceiling: ceiling and visibility are OK
Clouds: unknown
Weather: no significant weather observed at this time